Portada
METAR-TAF:

METAR-TAF

Aeroports :

Taiyuan, Xina

latitud: 37-47N, longitud: 112-33E, altitud: 779 m

Observació

L'informe es va fer fa 44 minuts, a les 11:30 UTC
Vent 2 kt amb direcció variable
Temperatura -1°C
Humitat 74%
Pressió 1027 hPa
Visibilitat: 3200 m
calitja

METAR: ZBYN 251130Z VRB01MPS 3200 HZ NSC M01/M05 Q1027 NOSIG

Hora: 20:14 (12:14 UTC)

Pronòstic

L'informe es va fer fa 3 hores i 9 minuts, a les 09:05 UTC
Pronòstic vàlid del 25 a les 12 UTC al 26 a les 12 UTC
Vent 6 kt del Est
Visibilitat: 3000 m
calitja
Evolucionant progressivament
l' 25 a les 18 UTC al 25 a les 19 UTC
Visibilitat: 2000 m
Evolucionant progressivament
l' 25 a les 23 UTC al 25 a les 24 UTC
Visibilitat: 1200 m
Evolucionant progressivament
l' 26 a les 03 UTC al 26 a les 04 UTC
Visibilitat: 3000 m

TAF: ZBYN 250905Z 2512/2612 09003MPS 3000 HZ NSC TX04/2607Z TNM06/2522Z BECMG 2518/2519 2000 BECMG 2523/2524 1200 BECMG 2603/2604 3000

Observacions i pronòstics meteorològics de més de 4000 aeroports (METAR i TAF).

Les estacions disponibles són els punts grocs i vermells al mapa.

Posi el ratolí al punt desitjat per veure el nom de l'estació.

Feu clic per veure les observacions i els pronòstics meteorològics.

Per canviar el mapa: feu clic els botons verds amb una creu de color negre per apropar; al botó verd amb un guió per allunyar la imatge; o en les fletxes verdes per a mapes adjacents.


METAR-TAF: